Cass Lake, MN (56633)

11:13 PM CST on February 07, 2016 (GMT -0600)
RAWS | | Change Station
CLOSE
Current Station
Personal Weather Station
Location: Cass Lake, MN
Elevation: 1299 ft
Nearby Weather Stations

Elev 1299 ft 47.38 °N, 94.61 °W | Updated 1 day ago

Cloudy
Cloudy
6 °F
Feels Like -13 °F
N
19
Wind Variable Wind from NNW
Gusts 32 mph

Today
High -- | Low -- °F
--% Chance of Precip.
Yesterday
High -- | Low -- °F
Precip. -- in
Pressure 29.85 in
Visibility 4.0 miles
Clouds Scattered Clouds 1700 ft
Scattered Clouds 2200 ft
Mostly Cloudy 2700 ft
Windchill -13 °F
Dew Point 2 °F
Humidity 83%
Rainfall in
Snow Depth Not available.
7:36 AM 5:28 PM
Waning Crescent, 0% visible
METAR KBJI 080452Z AUTO 32017G25KT 4SM -SN SCT017 SCT022 BKN027 M14/M17 A2985 RMK AO2 T11441171
Pressure 29.85 in
Visibility 4.0 miles
Clouds Scattered Clouds 1700 ft
Scattered Clouds 2200 ft
Mostly Cloudy 2700 ft
Windchill -13 °F
Dew Point 2 °F
Humidity 83%
Rainfall in
Snow Depth Not available.
7:36 AM 5:28 PM
Waning Crescent, 0% visible
METAR KBJI 080452Z AUTO 32017G25KT 4SM -SN SCT017 SCT022 BKN027 M14/M17 A2985 RMK AO2 T11441171

10-Day Weather Forecast

Almanac

Astronomy

Feb. 07, 2016 Rise Set
Actual Time
Civil Twilight
Nautical Twilight
Astronomical Twilight
Moon
Length of Visible Light
Length of Day
Tomorrow will be .
, % of the Moon is Illuminated

Today's Extremes

State Highs State Lows

Community

WunderPhotos

Upload Photos

1,891,382 photos uploaded!

WunderBlog® & News

Nearby

Air Quality

  Air Quality AQ Index Pollutant
Not available.

Snow Depth

Station Depth Elevation

Earthquake Activity

City Distance Mag. Time & Date
Minimum magnitude displayed is 2.5.

Coastal Water Temperatures

Place Temperature

Stations

Nearby Weather Stations

Station Location Temp. Windchill Dew Point Humidity Wind Precip. Elev Updated Type
                   

Watches & Warnings

Winter Weather Advisory
Issued: 10:56 PM CST Feb. 7, 2016 – National Weather Service

... Winter Weather Advisory remains in effect until 6 am CST
Monday...

* locations... International Falls south to Grand Rapids... the
Brainerd lakes and Lake Mille lacs.

* Snow accumulations... additional overnight snow accumulation of 1 to
3 inches.

* Winds... northwest 15 to 25 mph with gusts up to 30 mph.

* Visibilities... reduced to less than one mile at times in snow
and blowing snow. The Minnesota Department of Transportation
advises no travel in northern Cass... western Itasca and western
Koochiching counties.

Precautionary/preparedness actions...

A Winter Weather Advisory for snow and blowing snow means that
visibilities will be limited due to a combination of falling and
blowing snow. Use caution when traveling... especially in open
areas that are more exposed to the wind. Roads may be slick and
hazardous... so allow extra time to reach your destination.